createdAt,value
2023-03-11T00:03:48.819Z,0.78
2023-03-11T00:08:51.921Z,0.77
2023-03-11T00:13:53.545Z,0.77
2023-03-11T00:18:55.472Z,0.76
2023-03-11T00:24:00.630Z,0.76
2023-03-11T00:29:02.405Z,0.76
2023-03-11T00:34:04.173Z,0.76
2023-03-11T00:39:10.656Z,0.75
2023-03-11T00:44:12.649Z,0.74
2023-03-11T00:49:14.385Z,0.74
2023-03-11T00:54:16.078Z,0.76
2023-03-11T00:59:17.962Z,0.76
2023-03-11T01:04:19.645Z,0.77
2023-03-11T01:09:21.415Z,0.77
2023-03-11T01:14:23.282Z,0.77
2023-03-11T01:19:25.049Z,0.77
2023-03-11T01:24:26.827Z,0.76
2023-03-11T01:29:28.498Z,0.76
2023-03-11T01:34:30.478Z,0.76
2023-03-11T01:39:32.363Z,0.77
2023-03-11T01:44:34.022Z,0.75
2023-03-11T01:49:41.427Z,0.73
2023-03-11T01:54:43.514Z,0.71
2023-03-11T01:59:50.507Z,0.69
2023-03-11T02:04:54.023Z,0.70
2023-03-11T02:09:55.792Z,0.70
2023-03-11T02:14:57.580Z,0.68
2023-03-11T02:20:13.079Z,0.69
2023-03-11T02:25:30.515Z,0.69
2023-03-11T02:30:34.664Z,0.70
2023-03-11T02:35:37.087Z,0.69
2023-03-11T02:40:51.299Z,0.69
2023-03-11T02:45:53.789Z,0.69
2023-03-11T02:50:56.893Z,0.69
2023-03-11T02:55:58.676Z,0.68
2023-03-11T03:01:01.124Z,0.66
2023-03-11T03:06:03.444Z,0.64
2023-03-11T03:11:05.322Z,0.62
2023-03-11T03:16:07.544Z,0.62
2023-03-11T03:21:09.346Z,0.61
2023-03-11T03:26:13.506Z,0.57
2023-03-11T03:31:15.289Z,0.55
2023-03-11T03:36:17.054Z,0.54
2023-03-11T03:41:18.831Z,0.53
2023-03-11T03:46:21.474Z,0.51
2023-03-11T03:51:23.505Z,0.48
2023-03-11T03:56:25.281Z,0.46
2023-03-11T04:01:27.608Z,0.44
2023-03-11T04:06:29.459Z,0.42
2023-03-11T04:11:32.455Z,0.42
2023-03-11T04:16:34.574Z,0.42
2023-03-11T04:21:36.407Z,0.41
2023-03-11T04:26:38.191Z,0.41
2023-03-11T04:31:39.953Z,0.42
2023-03-11T04:36:42.248Z,0.44
2023-03-11T04:41:43.916Z,0.45
2023-03-11T04:46:45.789Z,0.47
2023-03-11T04:51:47.664Z,0.48
2023-03-11T04:56:49.439Z,0.49
2023-03-11T05:01:51.670Z,0.49
2023-03-11T05:06:53.494Z,0.49
2023-03-11T05:11:55.886Z,0.48
2023-03-11T05:16:57.864Z,0.48
2023-03-11T05:22:02.197Z,0.49
2023-03-11T05:27:05.100Z,0.52
2023-03-11T05:32:07.498Z,0.55
2023-03-11T05:37:09.284Z,0.56
2023-03-11T05:42:11.496Z,0.55
2023-03-11T05:47:13.941Z,0.54
2023-03-11T05:52:16.843Z,0.54
2023-03-11T05:57:19.534Z,0.54
2023-03-11T06:02:21.409Z,0.54
2023-03-11T06:07:23.190Z,0.54
2023-03-11T06:12:25.698Z,0.52
2023-03-11T06:17:29.988Z,0.47
2023-03-11T06:22:32.395Z,0.42
2023-03-11T06:27:34.251Z,0.36
2023-03-11T06:32:36.714Z,0.30
2023-03-11T06:37:40.332Z,0.27
2023-03-11T06:42:42.262Z,0.23
2023-03-11T06:47:44.646Z,0.21
2023-03-11T06:52:47.343Z,0.23
2023-03-11T06:57:49.736Z,0.30
2023-03-11T07:02:52.023Z,0.38
2023-03-11T07:07:55.232Z,0.47
2023-03-11T07:12:57.004Z,0.50
2023-03-11T07:17:58.882Z,0.55
2023-03-11T07:23:00.960Z,0.60
2023-03-11T07:28:03.048Z,0.62
2023-03-11T07:33:05.428Z,0.67
2023-03-11T07:38:11.211Z,0.73
2023-03-11T07:43:13.179Z,0.77
2023-03-11T07:48:15.261Z,0.86
2023-03-11T07:53:18.373Z,0.95
2023-03-11T07:58:20.243Z,1.12
2023-03-11T08:03:24.144Z,1.44
2023-03-11T08:08:26.347Z,1.78
2023-03-11T08:13:28.123Z,2.10
2023-03-11T08:18:30.821Z,2.16
2023-03-11T08:23:33.128Z,2.09
2023-03-11T08:28:36.003Z,1.95
2023-03-11T08:33:38.113Z,1.95
2023-03-11T08:38:40.356Z,1.96
2023-03-11T08:43:44.095Z,1.87
2023-03-11T08:48:46.480Z,1.73
2023-03-11T08:53:50.201Z,1.61
2023-03-11T08:58:52.489Z,1.55
2023-03-11T09:03:54.257Z,1.49
2023-03-11T09:08:56.442Z,1.37
2023-03-11T09:13:58.627Z,1.26
2023-03-11T09:19:03.592Z,1.19
2023-03-11T09:24:06.838Z,1.06
2023-03-11T09:29:08.663Z,1.04
2023-03-11T09:34:14.456Z,1.03
2023-03-11T09:39:17.543Z,0.97
2023-03-11T09:44:47.965Z,0.95
2023-03-11T09:50:15.744Z,0.97
2023-03-11T09:55:33.838Z,1.00
2023-03-11T10:00:37.334Z,1.02
2023-03-11T10:05:43.601Z,1.05
2023-03-11T10:10:49.992Z,1.04
2023-03-11T10:16:04.204Z,1.01
2023-03-11T10:21:18.527Z,1.00
2023-03-11T10:26:32.493Z,0.97
2023-03-11T10:31:40.698Z,1.05
2023-03-11T10:37:07.574Z,1.26
2023-03-11T10:42:16.914Z,1.34
2023-03-11T10:47:22.390Z,1.30
2023-03-11T10:52:24.169Z,1.24
2023-03-11T10:57:41.397Z,1.20
2023-03-11T11:02:57.617Z,1.28
2023-03-11T11:08:15.526Z,1.41
2023-03-11T11:13:20.923Z,1.43
2023-03-11T11:18:42.259Z,1.40
2023-03-11T11:23:44.039Z,1.39
2023-03-11T11:28:46.115Z,1.32
2023-03-11T11:33:54.139Z,1.27
2023-03-11T11:38:56.825Z,1.26
2023-03-11T11:44:06.093Z,1.22
2023-03-11T11:49:17.078Z,1.37
2023-03-11T11:54:35.752Z,1.65
2023-03-11T11:59:38.349Z,1.72
2023-03-11T12:05:19.542Z,1.63
2023-03-11T12:10:35.130Z,1.53
2023-03-11T12:16:06.204Z,1.46
2023-03-11T12:21:42.061Z,1.41
2023-03-11T12:26:48.337Z,1.35
2023-03-11T12:31:51.589Z,1.31
2023-03-11T12:36:55.466Z,1.24
2023-03-11T12:42:19.373Z,1.22
2023-03-11T12:47:28.305Z,1.33
2023-03-11T12:52:30.798Z,1.60
2023-03-11T12:58:25.519Z,1.77
2023-03-11T13:03:39.751Z,1.86
2023-03-11T13:08:50.623Z,1.87
2023-03-11T13:13:52.958Z,2.03
2023-03-11T13:19:27.935Z,2.43
2023-03-11T13:24:30.116Z,2.79
2023-03-11T13:29:35.552Z,2.93
2023-03-11T13:34:54.636Z,2.91
2023-03-11T13:40:15.046Z,2.89
2023-03-11T13:45:27.130Z,2.84
2023-03-11T13:50:50.847Z,2.78
2023-03-11T13:55:52.623Z,2.83
2023-03-11T14:00:57.846Z,3.19
2023-03-11T14:06:03.542Z,3.57
2023-03-11T14:11:09.927Z,3.75
2023-03-11T14:16:45.326Z,3.44
2023-03-11T14:21:51.124Z,2.86
2023-03-11T14:26:55.657Z,2.43
2023-03-11T14:31:58.366Z,2.10
2023-03-11T14:37:03.758Z,1.81
2023-03-11T14:42:13.513Z,1.75
2023-03-11T14:47:44.671Z,1.86
2023-03-11T14:52:55.252Z,1.95
2023-03-11T14:58:13.203Z,1.88
2023-03-11T15:03:28.414Z,1.77
2023-03-11T15:08:57.203Z,1.67
2023-03-11T15:14:24.687Z,1.52
2023-03-11T15:19:31.071Z,1.44
2023-03-11T15:24:34.165Z,1.41
2023-03-11T15:29:37.176Z,1.35
2023-03-11T15:34:38.861Z,1.29
2023-03-11T15:39:43.909Z,1.23
2023-03-11T15:45:05.044Z,1.21
2023-03-11T15:50:25.369Z,1.23
2023-03-11T15:55:29.368Z,1.22
2023-03-11T16:00:32.050Z,1.14
2023-03-11T16:05:34.652Z,1.04
2023-03-11T16:10:39.702Z,0.94
2023-03-11T16:15:42.410Z,0.86
2023-03-11T16:20:50.205Z,0.77
2023-03-11T16:25:56.697Z,0.67
2023-03-11T16:30:58.652Z,0.56
2023-03-11T16:36:01.916Z,0.43
2023-03-11T16:41:03.966Z,0.26
2023-03-11T16:46:06.192Z,0.10
2023-03-11T16:51:08.839Z,-0.05
2023-03-11T16:56:10.829Z,-0.17
2023-03-11T17:01:12.906Z,-0.24
2023-03-11T17:06:15.510Z,-0.28
2023-03-11T17:11:20.966Z,-0.29
2023-03-11T17:16:23.329Z,-0.29
2023-03-11T17:21:26.660Z,-0.27
2023-03-11T17:26:30.796Z,-0.27
2023-03-11T17:31:32.903Z,-0.29
2023-03-11T17:36:35.267Z,-0.31
2023-03-11T17:41:38.362Z,-0.35
2023-03-11T17:46:40.706Z,-0.38
2023-03-11T17:51:43.245Z,-0.42
2023-03-11T17:56:46.967Z,-0.50
2023-03-11T18:01:48.868Z,-0.61
2023-03-11T18:06:53.177Z,-0.73
2023-03-11T18:11:56.584Z,-0.86
2023-03-11T18:16:58.458Z,-1.01
2023-03-11T18:22:00.850Z,-1.14
2023-03-11T18:27:02.936Z,-1.26
2023-03-11T18:32:05.655Z,-1.32
2023-03-11T18:37:08.119Z,-1.29
2023-03-11T18:42:10.149Z,-1.21
2023-03-11T18:47:12.286Z,-1.12
2023-03-11T18:52:14.465Z,-1.03
2023-03-11T18:57:16.442Z,-1.02
2023-03-11T19:02:18.541Z,-1.12
2023-03-11T19:07:22.398Z,-1.21
2023-03-11T19:12:28.839Z,-1.31
2023-03-11T19:17:32.662Z,-1.39
2023-03-11T19:22:36.698Z,-1.48
2023-03-11T19:27:39.798Z,-1.59
2023-03-11T19:32:42.038Z,-1.73
2023-03-11T19:37:44.574Z,-1.86
2023-03-11T19:42:46.671Z,-1.99
2023-03-11T19:47:51.218Z,-2.09
2023-03-11T19:52:53.590Z,-2.19
2023-03-11T19:57:55.973Z,-2.30
2023-03-11T20:02:57.918Z,-2.42
2023-03-11T20:08:01.457Z,-2.50
2023-03-11T20:13:05.295Z,-2.52
2023-03-11T20:18:07.695Z,-2.47
2023-03-11T20:23:10.930Z,-2.38
2023-03-11T20:28:13.115Z,-2.30
2023-03-11T20:33:15.120Z,-2.30
2023-03-11T20:38:17.432Z,-2.35
2023-03-11T20:43:19.364Z,-2.43
2023-03-11T20:48:21.221Z,-2.52
2023-03-11T20:53:23.169Z,-2.59
2023-03-11T20:58:25.244Z,-2.67
2023-03-11T21:03:27.781Z,-2.75
2023-03-11T21:08:29.956Z,-2.82
2023-03-11T21:13:35.421Z,-2.88
2023-03-11T21:18:37.961Z,-2.92
2023-03-11T21:23:41.868Z,-2.95
2023-03-11T21:28:46.278Z,-2.98
2023-03-11T21:33:51.591Z,-3.01
2023-03-11T21:38:53.785Z,-3.03
2023-03-11T21:43:57.131Z,-3.05
2023-03-11T21:49:00.378Z,-3.07
2023-03-11T21:54:03.332Z,-3.08
2023-03-11T21:59:05.710Z,-3.10
2023-03-11T22:04:09.146Z,-3.12
2023-03-11T22:09:11.296Z,-3.14
2023-03-11T22:14:14.093Z,-3.18
2023-03-11T22:19:16.986Z,-3.21
2023-03-11T22:24:18.973Z,-3.27
2023-03-11T22:29:20.741Z,-3.35
2023-03-11T22:34:22.516Z,-3.40
2023-03-11T22:39:24.497Z,-3.47
2023-03-11T22:44:26.270Z,-3.57
2023-03-11T22:49:28.665Z,-3.65
2023-03-11T22:54:30.477Z,-3.74
2023-03-11T22:59:32.310Z,-3.79
2023-03-11T23:04:34.191Z,-3.82
2023-03-11T23:09:35.967Z,-3.84
2023-03-11T23:14:45.053Z,-3.75
2023-03-11T23:19:47.501Z,-3.63
2023-03-11T23:24:49.277Z,-3.48
2023-03-11T23:29:52.230Z,-3.32
2023-03-11T23:34:53.947Z,-3.14
2023-03-11T23:39:56.441Z,-2.96
2023-03-11T23:44:58.938Z,-2.78
2023-03-11T23:50:00.909Z,-2.61
2023-03-11T23:55:03.910Z,-2.44
